Lexington, Minnesota
Current Conditions -  °F | °C
As of 3:45 PM on Saturday 25 Oct 2014 (Local Time) from KANE Reporting Station
Clear Clear  
Wind Chill: 64°   Ceiling: Unl
Heat Index: 64°   Visibility: 10mi
Dew Point: 27°   Wind: 14mph
Humidity: 24%   Direction: 300°WNW
Pressure: 30.02"   Gusts: 22mph
Location:  45.1631°N, 93.1211°W
Report Text: KANE 252045Z 30012G19KT 10SM SKC 18/M03 A3002
Loading
Personal Weather Stations






























Interactive Weather Map
Tropical Storm Tracking
New forecast layout! Learn more

10-Day Weather Forecast

Advertisements
Track Severe Weather on mobile